Time;durP1;ratioP1;P1;durP2;ratioP2;P2;SDS_P1;SDS_P2;PMS_P1;PMS_P2;Temp;Humidity;BMP_temperature;BMP_pressure;BME280_temperature;BME280_humidity;BME280_pressure;Samples;Min_cycle;Max_cycle;Signal;HPM_P1;HPM_P2
2022/08/02 00:00:21;;;;;;;3.47;1.38;;;;;;;21.69;44.31;101796.81;5110209;28;20071;-63
2022/08/02 00:02:49;;;;;;;2.75;1.58;;;;;;;21.68;44.48;101788.88;5098122;28;20076;-63
2022/08/02 00:05:16;;;;;;;3.55;1.48;;;;;;;21.66;44.38;101796.53;5107256;28;20055;-63
2022/08/02 00:07:46;;;;;;;4.35;1.67;;;;;;;21.64;44.39;101796.00;5113738;28;20437;-63
2022/08/02 00:10:13;;;;;;;1.83;1.23;;;;;;;21.60;44.39;101783.94;5104271;28;20053;-63
2022/08/02 00:12:41;;;;;;;3.03;1.27;;;;;;;21.62;44.55;101795.44;5095347;28;20044;-63
2022/08/02 00:15:11;;;;;;;4.47;1.42;;;;;;;21.59;44.68;101780.41;5103141;28;20075;-63
2022/08/02 00:17:43;;;;;;;2.50;1.42;;;;;;;21.55;44.49;101770.28;5114189;28;20048;-63
2022/08/02 00:20:14;;;;;;;3.10;1.63;;;;;;;21.57;44.62;101776.28;5091246;28;20059;-63
2022/08/02 00:22:42;;;;;;;2.72;1.52;;;;;;;21.56;44.58;101777.38;5089331;28;20048;-63
2022/08/02 00:25:11;;;;;;;3.38;1.38;;;;;;;21.54;44.75;101779.56;5096651;28;20071;-64
2022/08/02 00:27:39;;;;;;;2.72;1.55;;;;;;;21.53;44.49;101781.47;5107991;28;20043;-63
2022/08/02 00:30:08;;;;;;;2.63;1.40;;;;;;;21.51;44.57;101796.53;5098327;28;20064;-63
2022/08/02 00:32:35;;;;;;;2.58;1.27;;;;;;;21.50;44.69;101792.16;5100909;28;20091;-63
2022/08/02 00:35:04;;;;;;;2.08;1.27;;;;;;;21.49;44.68;101802.28;5102751;28;20052;-63
2022/08/02 00:37:32;;;;;;;4.28;1.63;;;;;;;21.47;44.54;101801.72;5099019;28;20059;-63
2022/08/02 00:40:01;;;;;;;2.17;1.30;;;;;;;21.46;44.42;101804.72;5104403;28;20055;-63
2022/08/02 00:42:30;;;;;;;4.93;1.75;;;;;;;21.44;44.42;101797.63;5103371;28;20409;-63
2022/08/02 00:44:58;;;;;;;4.95;1.45;;;;;;;21.42;44.38;101799.78;5102387;28;20095;-63
2022/08/02 00:47:25;;;;;;;6.07;2.10;;;;;;;21.41;44.46;101789.94;5106007;28;20055;-63
2022/08/02 00:49:53;;;;;;;4.93;1.88;;;;;;;21.40;44.65;101790.22;5102993;28;20046;-63
2022/08/02 00:52:22;;;;;;;3.30;1.42;;;;;;;21.38;44.48;101792.41;5091406;28;20048;-63
2022/08/02 00:54:50;;;;;;;4.03;1.42;;;;;;;21.35;44.33;101787.47;5105115;28;20080;-63
2022/08/02 00:57:18;;;;;;;4.75;1.77;;;;;;;21.36;44.28;101789.94;5092266;28;20450;-63
2022/08/02 00:59:47;;;;;;;4.20;1.77;;;;;;;21.34;44.32;101781.19;5105915;28;20079;-63
2022/08/02 01:02:15;;;;;;;1.98;1.08;;;;;;;21.34;44.38;101772.97;5108776;28;20044;-63
2022/08/02 01:04:44;;;;;;;2.28;1.50;;;;;;;21.33;44.30;101776.81;5096612;28;20052;-63
2022/08/02 01:07:13;;;;;;;2.65;1.30;;;;;;;21.19;44.40;101751.06;5102761;28;20047;-63
2022/08/02 01:09:41;;;;;;;1.65;1.20;;;;;;;21.16;44.48;101740.66;5096586;28;20045;-63
2022/08/02 01:12:10;;;;;;;4.20;1.38;;;;;;;21.29;44.47;101759.31;5100994;28;20166;-63
2022/08/02 01:14:40;;;;;;;6.10;1.38;;;;;;;21.28;44.39;101756.84;5101067;28;20056;-63
2022/08/02 01:17:15;;;;;;;2.97;1.75;;;;;;;21.26;44.43;101759.84;5102486;28;20082;-63
2022/08/02 01:19:51;;;;;;;5.88;1.83;;;;;;;21.26;44.34;101764.50;5093267;28;20075;-63
2022/08/02 01:22:38;;;;;;;3.58;1.50;;;;;;;21.25;44.52;101765.59;5101274;28;20048;-62
2022/08/02 01:25:44;;;;;;;4.20;1.75;;;;;;;21.23;44.28;101762.31;5095535;28;20054;-63
2022/08/02 01:28:28;;;;;;;2.42;1.58;;;;;;;21.19;44.40;101759.25;5100794;28;20072;-63
2022/08/02 01:31:01;;;;;;;3.63;1.30;;;;;;;21.21;44.34;101769.91;5103773;28;20044;-63
2022/08/02 01:33:35;;;;;;;3.17;1.40;;;;;;;21.07;44.29;101745.84;5093456;28;20083;-63
2022/08/02 01:36:05;;;;;;;4.60;1.67;;;;;;;21.16;44.30;101768.00;5098395;28;20405;-63
2022/08/02 01:38:38;;;;;;;4.40;1.60;;;;;;;21.17;44.37;101764.16;5100238;28;20044;-63
2022/08/02 01:41:09;;;;;;;3.10;1.30;;;;;;;21.15;44.38;101769.09;5099573;28;20051;-63
2022/08/02 01:43:42;;;;;;;4.20;1.45;;;;;;;21.12;44.33;101761.44;5101553;28;20051;-63
2022/08/02 01:46:12;;;;;;;3.70;1.35;;;;;;;21.13;44.52;101768.53;5101375;28;20442;-63
2022/08/02 01:48:42;;;;;;;4.50;1.67;;;;;;;21.11;44.39;101766.06;5103513;28;20072;-63
2022/08/02 01:51:13;;;;;;;1.98;1.30;;;;;;;21.09;44.39;101764.69;5098679;28;20151;-63
2022/08/02 01:53:45;;;;;;;3.92;1.38;;;;;;;21.08;44.39;101752.94;5104133;28;20081;-63
2022/08/02 01:56:14;;;;;;;3.65;1.45;;;;;;;21.06;44.49;101748.84;5095575;28;20109;-63
2022/08/02 01:58:45;;;;;;;4.82;1.60;;;;;;;21.05;44.46;101741.72;5103684;28;20044;-63
2022/08/02 02:01:15;;;;;;;3.28;1.60;;;;;;;21.03;44.53;101744.72;5104210;28;20045;-63
2022/08/02 02:03:47;;;;;;;3.83;1.60;;;;;;;21.02;44.58;101745.00;5101848;28;20427;-63
2022/08/02 02:06:16;;;;;;;5.28;1.45;;;;;;;21.00;44.70;101738.97;5091891;28;20063;-63
2022/08/02 02:08:45;;;;;;;3.33;1.40;;;;;;;20.99;44.68;101740.91;5109956;28;20048;-63
2022/08/02 02:11:13;;;;;;;3.42;1.40;;;;;;;20.98;44.81;101735.69;5102576;28;20056;-63
2022/08/02 02:14:03;;;;;;;3.03;1.50;;;;;;;20.95;44.82;101734.31;5095168;28;20459;-62
2022/08/02 02:16:33;;;;;;;2.85;1.23;;;;;;;20.93;44.87;101733.78;5098517;28;20086;-62
2022/08/02 02:19:03;;;;;;;3.33;1.60;;;;;;;20.91;44.83;101726.94;5101428;28;20036;-63
2022/08/02 02:21:31;;;;;;;4.40;1.67;;;;;;;20.91;44.92;101721.47;5089737;28;20052;-63
2022/08/02 02:24:01;;;;;;;5.60;1.60;;;;;;;20.90;44.89;101725.28;5101562;28;20052;-63
2022/08/02 02:26:31;;;;;;;7.00;2.08;;;;;;;20.88;44.93;101720.09;5099423;28;20074;-63
2022/08/02 02:29:03;;;;;;;2.47;1.30;;;;;;;20.85;44.92;101714.34;5094885;28;20048;-63
2022/08/02 02:31:35;;;;;;;3.40;1.60;;;;;;;20.71;44.87;101682.09;5097589;28;20049;-63
2022/08/02 02:34:05;;;;;;;4.55;2.10;;;;;;;20.85;44.94;101708.88;5100969;28;20083;-63
2022/08/02 02:36:34;;;;;;;3.08;1.63;;;;;;;20.82;45.06;101701.22;5090044;28;20060;-63
2022/08/02 02:39:05;;;;;;;4.05;1.90;;;;;;;20.82;45.18;101698.50;5096969;28;20056;-63
2022/08/02 02:41:42;;;;;;;3.65;1.65;;;;;;;20.79;45.08;101694.41;5094706;28;20060;-63
2022/08/02 02:44:16;;;;;;;2.95;1.50;;;;;;;20.77;45.21;101700.16;5097711;28;20040;-63
2022/08/02 02:46:44;;;;;;;4.95;1.65;;;;;;;20.43;45.31;101664.25;5088919;28;20055;-63
2022/08/02 02:49:14;;;;;;;5.85;1.85;;;;;;;20.76;45.16;101708.63;5094849;28;20048;-63
2022/08/02 02:51:44;;;;;;;2.35;1.50;;;;;;;20.74;45.11;101708.06;5116039;28;20066;-63
2022/08/02 02:54:13;;;;;;;5.28;1.77;;;;;;;20.73;45.26;101709.16;5100402;28;20086;-63
2022/08/02 02:57:02;;;;;;;3.97;1.80;;;;;;;20.71;45.39;101708.59;5103955;28;20057;-63
2022/08/02 02:59:32;;;;;;;4.72;1.40;;;;;;;20.69;45.35;101706.13;5106795;28;20094;-63
2022/08/02 03:02:01;;;;;;;4.50;1.40;;;;;;;20.69;45.25;101706.13;5099448;28;20071;-63
2022/08/02 03:04:31;;;;;;;4.15;1.75;;;;;;;20.66;45.34;101709.41;5093852;28;20044;-63
2022/08/02 03:07:19;;;;;;;4.40;1.73;;;;;;;20.66;45.34;101706.69;5092901;28;20616;-63
2022/08/02 03:09:48;;;;;;;4.15;1.67;;;;;;;20.65;45.37;101705.03;5098751;28;20044;-63
2022/08/02 03:12:23;;;;;;;4.35;1.60;;;;;;;20.64;45.56;101695.19;5100263;28;20043;-63
2022/08/02 03:15:00;;;;;;;3.47;1.83;;;;;;;20.64;45.49;101700.66;5108338;28;20052;-63
2022/08/02 03:17:41;;;;;;;4.57;1.58;;;;;;;20.63;45.70;101698.19;5094454;28;20044;-63
2022/08/02 03:20:13;;;;;;;4.68;1.83;;;;;;;20.62;45.75;101704.75;5105807;28;20076;-63
2022/08/02 03:22:41;;;;;;;3.58;1.67;;;;;;;20.60;45.78;101699.56;5101245;28;20185;-63
2022/08/02 03:25:10;;;;;;;3.47;1.48;;;;;;;20.59;45.75;101697.91;5102329;28;20048;-63
2022/08/02 03:27:39;;;;;;;3.67;1.42;;;;;;;20.58;45.76;101696.28;5098899;28;20047;-63
2022/08/02 03:30:10;;;;;;;6.30;1.80;;;;;;;20.58;45.79;101692.72;5097111;28;20139;-63
2022/08/02 03:32:40;;;;;;;6.68;2.38;;;;;;;20.56;45.78;101698.44;5093099;28;20049;-63
2022/08/02 03:35:11;;;;;;;4.63;1.55;;;;;;;20.54;45.95;101703.34;5106889;28;20059;-63
2022/08/02 03:37:40;;;;;;;4.50;1.90;;;;;;;20.54;45.92;101697.91;5099323;28;20055;-63
2022/08/02 03:40:11;;;;;;;6.30;2.05;;;;;;;20.54;46.13;101706.09;5103063;28;20040;-62
2022/08/02 03:42:40;;;;;;;3.33;1.50;;;;;;;20.51;45.99;101687.50;5091429;28;20048;-63
2022/08/02 03:45:12;;;;;;;4.13;1.55;;;;;;;20.52;46.09;101693.78;5098362;28;20044;-63
2022/08/02 03:47:41;;;;;;;2.97;1.65;;;;;;;20.49;46.25;101683.41;5105740;28;20072;-63
2022/08/02 03:50:12;;;;;;;3.83;1.80;;;;;;;20.47;46.29;101678.19;5105976;28;20044;-63
2022/08/02 03:52:41;;;;;;;3.40;1.70;;;;;;;20.46;46.37;101682.03;5102792;28;20051;-63
2022/08/02 03:55:10;;;;;;;4.82;2.00;;;;;;;20.44;46.39;101676.81;5104536;28;20731;-63
2022/08/02 03:57:39;;;;;;;3.92;1.80;;;;;;;20.44;46.25;101678.75;5094238;28;20044;-63
2022/08/02 04:00:10;;;;;;;5.10;1.88;;;;;;;20.42;46.40;101670.00;5094341;28;20044;-62
2022/08/02 04:02:38;;;;;;;4.45;1.65;;;;;;;20.41;46.50;101682.00;5097916;28;20477;-65
2022/08/02 04:05:06;;;;;;;4.32;1.83;;;;;;;20.40;46.50;101683.09;5104150;28;20052;-64
2022/08/02 04:07:34;;;;;;;3.67;1.95;;;;;;;20.38;46.63;101677.91;5101763;28;20149;-64
2022/08/02 04:10:22;;;;;;;3.53;1.73;;;;;;;20.37;46.62;101668.03;5093958;28;20416;-62
2022/08/02 04:12:50;;;;;;;4.68;2.08;;;;;;;20.35;46.67;101658.47;5102568;28;20055;-63
2022/08/02 04:15:19;;;;;;;3.72;1.80;;;;;;;20.33;46.79;101656.00;5105208;28;20398;-62
2022/08/02 04:17:50;;;;;;;4.43;1.70;;;;;;;20.33;46.88;101657.91;5115548;28;20055;-63
2022/08/02 04:20:21;;;;;;;3.65;1.90;;;;;;;20.32;46.75;101664.47;5100947;28;20045;-63
2022/08/02 04:22:58;;;;;;;3.88;1.60;;;;;;;20.30;47.05;101662.00;5107105;28;20563;-63
2022/08/02 04:25:27;;;;;;;4.25;1.73;;;;;;;20.30;46.83;101669.38;5112324;28;20043;-63
2022/08/02 04:28:08;;;;;;;5.18;2.13;;;;;;;20.27;46.94;101670.72;5097461;28;20063;-63
2022/08/02 04:30:45;;;;;;;3.22;1.77;;;;;;;20.27;47.12;101669.91;5107198;28;20136;-63
2022/08/02 04:33:14;;;;;;;4.88;2.00;;;;;;;20.24;47.30;101668.53;5101299;28;20055;-63
2022/08/02 04:35:43;;;;;;;3.30;1.42;;;;;;;20.23;47.13;101669.63;4751593;28;10000956;-63
2022/08/02 04:38:13;;;;;;;3.90;2.08;;;;;;;20.23;47.38;101666.88;5099029;28;20059;-64
2022/08/02 04:40:49;;;;;;;3.22;1.70;;;;;;;20.23;47.19;101672.34;5101782;28;20052;-64
2022/08/02 04:43:17;;;;;;;4.45;2.65;;;;;;;20.22;47.48;101675.34;5089693;28;20112;-63
2022/08/02 04:45:48;;;;;;;3.67;1.65;;;;;;;20.21;47.38;101676.44;5109101;28;20302;-66
2022/08/02 04:48:16;;;;;;;3.42;1.98;;;;;;;20.20;47.61;101678.34;5098590;28;20044;-64
2022/08/02 04:50:43;;;;;;;4.40;1.80;;;;;;;20.18;47.58;101675.03;5096157;28;20438;-63
2022/08/02 04:53:11;;;;;;;4.05;1.90;;;;;;;20.19;47.79;101681.31;5096426;28;20109;-65
2022/08/02 04:55:39;;;;;;;2.92;1.95;;;;;;;20.18;47.62;101676.94;5106878;28;20048;-63
2022/08/02 04:58:07;;;;;;;5.82;1.85;;;;;;;20.17;47.95;101667.13;5093277;28;20080;-63
2022/08/02 05:00:56;;;;;;;4.85;2.00;;;;;;;20.15;47.70;101665.47;5094807;28;20058;-65
2022/08/02 05:03:24;;;;;;;3.92;2.15;;;;;;;20.15;47.88;101664.66;5087200;28;20048;-65
2022/08/02 05:05:52;;;;;;;5.03;2.13;;;;;;;20.14;48.03;101663.00;5082831;28;20068;-64
2022/08/02 05:08:20;;;;;;;4.45;1.80;;;;;;;20.13;48.05;101664.09;5086820;28;20087;-64
2022/08/02 05:10:48;;;;;;;2.70;1.63;;;;;;;20.13;48.09;101673.13;5082663;28;20079;-64
2022/08/02 05:13:15;;;;;;;4.43;2.10;;;;;;;20.11;48.14;101661.63;5093296;28;20076;-62
2022/08/02 05:15:43;;;;;;;6.22;1.90;;;;;;;20.13;48.29;101666.84;5086069;28;20465;-64
2022/08/02 05:18:12;;;;;;;12.40;2.35;;;;;;;20.11;48.19;101664.38;5086848;28;20083;-63
2022/08/02 05:20:41;;;;;;;10.90;2.25;;;;;;;20.12;48.48;101667.91;5095154;28;20084;-63
2022/08/02 05:23:08;;;;;;;7.35;2.72;;;;;;;20.12;48.53;101662.47;5093336;28;20417;-61
2022/08/02 05:25:36;;;;;;;6.88;2.38;;;;;;;20.12;48.41;101660.56;5102135;28;20078;-64
2022/08/02 05:28:04;;;;;;;4.13;2.20;;;;;;;20.13;48.47;101667.66;5104194;28;20052;-65
2022/08/02 05:30:38;;;;;;;4.93;2.08;;;;;;;20.15;48.61;101665.47;5097126;28;20063;-67
2022/08/02 05:33:06;;;;;;;4.28;1.95;;;;;;;20.16;48.75;101658.13;5096223;28;20126;-64
2022/08/02 05:35:35;;;;;;;5.47;2.92;;;;;;;20.18;50.32;101655.13;5094245;28;20052;-62
2022/08/02 05:38:03;;;;;;;8.85;2.53;;;;;;;20.17;49.48;101640.66;5101266;28;20052;-62
2022/08/02 05:40:37;;;;;;;5.55;2.30;;;;;;;20.16;49.55;101639.00;5087164;28;20048;-65
2022/08/02 05:43:22;;;;;;;8.70;2.65;;;;;;;20.19;49.39;101651.31;5094381;28;20055;-63
2022/08/02 05:45:52;;;;;;;5.55;2.20;;;;;;;20.21;49.52;101658.13;5104396;28;20048;-62
2022/08/02 05:48:20;;;;;;;4.50;2.10;;;;;;;20.04;49.36;101624.75;5097122;28;20056;-63
2022/08/02 05:50:55;;;;;;;5.93;2.53;;;;;;;20.23;49.46;101657.88;5104064;28;20079;-63
2022/08/02 05:53:28;;;;;;;6.72;2.58;;;;;;;20.23;49.56;101649.69;5104550;28;20508;-62
2022/08/02 05:56:03;;;;;;;5.00;1.90;;;;;;;20.25;49.56;101653.78;5094581;28;20067;-63
2022/08/02 05:58:40;;;;;;;5.70;1.95;;;;;;;20.27;49.60;101650.78;5084038;28;20114;-62
2022/08/02 06:01:11;;;;;;;6.50;2.70;;;;;;;20.27;49.47;101656.25;5103093;28;20052;-62
2022/08/02 06:03:45;;;;;;;3.92;2.10;;;;;;;20.27;49.76;101661.72;5096668;28;20040;-63
2022/08/02 06:06:16;;;;;;;5.40;2.90;;;;;;;20.26;49.67;101665.53;5094961;28;20566;-62
2022/08/02 06:08:47;;;;;;;3.63;2.40;;;;;;;20.26;49.79;101671.00;5091009;28;20121;-62
2022/08/02 06:11:20;;;;;;;4.30;2.33;;;;;;;20.26;49.85;101676.44;5104018;28;20047;-62
2022/08/02 06:13:48;;;;;;;5.03;2.08;;;;;;;20.25;49.98;101688.44;5093049;28;20051;-62
2022/08/02 06:16:17;;;;;;;6.00;3.20;;;;;;;20.26;51.25;101684.63;5098759;28;20071;-61
2022/08/02 06:19:00;;;;;;;9.57;2.92;;;;;;;20.05;53.28;101650.97;5095208;28;20091;-63
2022/08/02 06:21:29;;;;;;;10.15;3.20;;;;;;;20.11;53.12;101661.63;5105888;28;20050;-60
2022/08/02 06:24:19;;;;;;;6.25;2.80;;;;;;;20.26;52.99;101681.91;5099231;28;20062;-63
2022/08/02 06:26:51;;;;;;;5.47;2.95;;;;;;;20.24;52.31;101679.44;5106075;28;20079;-62
2022/08/02 06:29:21;;;;;;;7.55;2.38;;;;;;;20.26;52.23;101681.91;5105788;28;20051;-62
2022/08/02 06:31:51;;;;;;;3.78;2.22;;;;;;;20.25;52.12;101681.09;5104833;28;20174;-62
2022/08/02 06:34:19;;;;;;;5.38;2.30;;;;;;;20.27;52.00;101678.91;5101334;28;20071;-63
2022/08/02 06:36:54;;;;;;;4.47;2.08;;;;;;;20.15;51.93;101661.94;5113805;28;20047;-62
2022/08/02 06:39:32;;;;;;;4.45;2.58;;;;;;;20.29;51.98;101676.72;5105524;28;20076;-62
2022/08/02 06:42:07;;;;;;;4.05;2.33;;;;;;;20.28;51.97;101669.63;5107727;28;20051;-62
2022/08/02 06:44:37;;;;;;;7.30;2.30;;;;;;;20.33;52.06;101672.38;5099305;28;20044;-62
2022/08/02 06:47:17;;;;;;;5.78;2.78;;;;;;;20.34;52.12;101671.28;5094875;28;20040;-71
2022/08/02 06:49:45;;;;;;;7.32;2.55;;;;;;;20.38;52.08;101672.44;5098351;28;20112;-63
2022/08/02 06:52:24;;;;;;;6.82;3.17;;;;;;;20.40;52.12;101663.97;5100608;28;20074;-63
2022/08/02 06:54:59;;;;;;;6.30;2.58;;;;;;;20.25;52.11;101642.88;5106799;28;20051;-63
2022/08/02 06:57:29;;;;;;;5.28;2.42;;;;;;;20.42;52.26;101672.72;5106622;28;20117;-62
2022/08/02 07:00:00;;;;;;;4.95;2.33;;;;;;;20.42;52.14;101670.81;5107187;28;20101;-62
2022/08/02 07:02:29;;;;;;;7.43;3.13;;;;;;;20.28;52.38;101639.59;5095889;28;20040;-62
2022/08/02 07:04:57;;;;;;;6.82;3.00;;;;;;;20.43;52.19;101668.91;5087273;28;20505;-62
2022/08/02 07:07:26;;;;;;;5.63;2.88;;;;;;;20.42;52.62;101673.53;5102298;28;20521;-61
2022/08/02 07:09:54;;;;;;;5.93;2.28;;;;;;;20.44;52.59;101665.09;5089066;28;20044;-64
2022/08/02 07:12:30;;;;;;;6.88;3.15;;;;;;;20.43;52.60;101663.44;5109371;28;20070;-63
2022/08/02 07:14:58;;;;;;;5.88;2.50;;;;;;;20.43;52.66;101668.91;5100717;28;20504;-64
2022/08/02 07:17:26;;;;;;;8.65;3.38;;;;;;;20.46;53.40;101676.56;5104393;28;20105;-64
2022/08/02 07:19:54;;;;;;;6.00;2.60;;;;;;;20.47;53.81;101672.75;5112183;28;20048;-63
2022/08/02 07:22:25;;;;;;;5.55;2.40;;;;;;;20.48;53.44;101677.13;5103099;28;20052;-70
2022/08/02 07:24:56;;;;;;;8.13;3.22;;;;;;;20.49;53.70;101669.75;5103953;28;20131;-62
2022/08/02 07:27:24;;;;;;;6.68;2.58;;;;;;;20.49;53.57;101661.56;5095397;28;20067;-63
2022/08/02 07:29:52;;;;;;;4.63;2.58;;;;;;;20.49;53.75;101651.44;5098582;28;20051;-62
2022/08/02 07:32:22;;;;;;;3.65;2.10;;;;;;;20.50;53.69;101658.56;5099082;28;20075;-62
2022/08/02 07:34:50;;;;;;;7.63;3.42;;;;;;;20.49;53.82;101659.63;5096227;28;20094;-63
2022/08/02 07:37:21;;;;;;;4.53;2.88;;;;;;;20.48;54.22;101649.00;5096026;28;20063;-63
2022/08/02 07:40:12;;;;;;;8.52;2.60;;;;;;;20.38;54.12;101634.22;5096858;28;20047;-63
2022/08/02 07:42:47;;;;;;;4.28;2.40;;;;;;;20.46;54.00;101644.63;5095013;28;20044;-63
2022/08/02 07:45:14;;;;;;;6.53;2.75;;;;;;;20.60;54.41;101644.94;5095023;28;20044;-64
2022/08/02 07:47:44;;;;;;;4.68;2.50;;;;;;;20.60;54.99;101652.31;5094921;28;20044;-63
2022/08/02 07:50:14;;;;;;;5.07;2.33;;;;;;;20.60;54.94;101652.31;5093825;28;20550;-64
2022/08/02 07:52:43;;;;;;;3.95;2.65;;;;;;;20.60;54.89;101652.31;5103031;28;20048;-63
2022/08/02 07:55:14;;;;;;;4.28;2.40;;;;;;;20.61;55.06;101653.94;5101090;28;20045;-64
2022/08/02 07:57:42;;;;;;;3.92;2.28;;;;;;;20.61;54.86;101665.69;5108985;28;20052;-63
2022/08/02 08:00:15;;;;;;;7.00;2.40;;;;;;;20.62;54.83;101667.31;5090800;28;20084;-63
2022/08/02 08:02:44;;;;;;;4.38;2.28;;;;;;;20.62;54.75;101661.88;5104490;28;20060;-64
2022/08/02 08:05:12;;;;;;;8.35;2.63;;;;;;;20.64;54.84;101656.13;5105861;28;20051;-62
2022/08/02 08:07:40;;;;;;;6.85;2.50;;;;;;;20.64;54.84;101659.69;5098546;28;20108;-63
2022/08/02 08:10:09;;;;;;;5.15;2.20;;;;;;;20.67;55.00;101655.59;5094052;28;20048;-63
2022/08/02 08:12:39;;;;;;;6.57;2.33;;;;;;;20.67;55.32;101645.50;5111548;28;20043;-63
2022/08/02 08:15:07;;;;;;;3.55;2.10;;;;;;;20.69;55.33;101651.50;5101025;28;20040;-63
2022/08/02 08:17:35;;;;;;;3.22;1.80;;;;;;;20.70;55.43;101657.78;5095921;28;20047;-63
2022/08/02 08:20:04;;;;;;;6.63;2.22;;;;;;;20.72;55.45;101656.44;5109682;28;20495;-62
2022/08/02 08:22:32;;;;;;;5.03;2.20;;;;;;;20.73;55.37;101658.06;5111548;28;20048;-62
2022/08/02 08:25:00;;;;;;;5.53;2.15;;;;;;;20.73;55.20;101655.34;5101988;28;20048;-62
2022/08/02 08:27:28;;;;;;;3.92;1.90;;;;;;;20.77;55.31;101661.09;5105945;28;20076;-62
2022/08/02 08:29:57;;;;;;;2.95;1.90;;;;;;;20.78;55.37;101657.25;5091658;28;20186;-62
2022/08/02 08:32:25;;;;;;;5.65;1.83;;;;;;;20.79;55.28;101650.69;5100075;28;20537;-62
2022/08/02 08:34:53;;;;;;;4.75;2.13;;;;;;;20.81;55.25;101648.50;5101778;28;20078;-62
2022/08/02 08:37:21;;;;;;;4.07;1.70;;;;;;;20.83;55.27;101648.22;5103133;28;20052;-62
2022/08/02 08:39:50;;;;;;;5.53;1.80;;;;;;;20.84;55.26;101647.13;5096752;28;20052;-62
2022/08/02 08:42:25;;;;;;;7.18;2.15;;;;;;;20.86;55.22;101643.03;5101198;28;20058;-62
2022/08/02 08:44:54;;;;;;;2.92;1.77;;;;;;;20.91;55.53;101642.22;5107498;28;20052;-63
2022/08/02 08:47:28;;;;;;;4.45;2.38;;;;;;;20.92;55.69;101650.16;5093386;28;20072;-63
2022/08/02 08:50:03;;;;;;;2.85;1.90;;;;;;;20.93;55.34;101646.31;5097720;28;20058;-63
2022/08/02 08:52:35;;;;;;;3.25;2.53;;;;;;;20.92;55.28;101639.22;5096098;28;20040;-63
2022/08/02 08:55:04;;;;;;;3.38;1.85;;;;;;;20.98;55.53;101643.59;5103618;28;20067;-63
2022/08/02 08:57:37;;;;;;;3.10;2.00;;;;;;;21.00;55.54;101646.06;5095742;28;20040;-63
2022/08/02 09:00:05;;;;;;;2.50;1.70;;;;;;;21.01;55.45;101650.44;5093102;28;20079;-64
2022/08/02 09:02:36;;;;;;;4.68;1.90;;;;;;;21.04;55.68;101642.50;5100846;28;20040;-64
2022/08/02 09:05:04;;;;;;;8.40;1.90;;;;;;;21.07;55.58;101643.88;5105713;28;20059;-64
2022/08/02 09:07:32;;;;;;;4.93;1.90;;;;;;;21.09;55.46;101653.44;5100776;28;21367;-62
2022/08/02 09:10:00;;;;;;;5.53;2.00;;;;;;;21.11;55.76;101644.97;5096846;28;20059;-62
2022/08/02 09:12:28;;;;;;;4.35;1.85;;;;;;;21.15;56.31;101643.34;5098697;28;20055;-62
2022/08/02 09:14:56;;;;;;;3.58;2.05;;;;;;;21.16;56.03;101642.25;5097513;28;20071;-64
2022/08/02 09:17:24;;;;;;;4.38;1.80;;;;;;;21.18;55.83;101639.22;5103609;28;20455;-63
2022/08/02 09:20:08;;;;;;;4.05;1.85;;;;;;;21.21;56.23;101633.22;5096093;28;20052;-63
2022/08/02 09:22:36;;;;;;;3.55;1.70;;;;;;;21.16;56.30;101628.56;5104601;28;20047;-62
2022/08/02 09:25:05;;;;;;;2.88;2.10;;;;;;;21.27;56.03;101635.72;5104648;28;20402;-63
2022/08/02 09:27:36;;;;;;;2.50;1.90;;;;;;;21.30;56.43;101632.44;5103986;28;20051;-63
2022/08/02 09:30:06;;;;;;;2.47;1.80;;;;;;;21.33;56.16;101637.34;5102056;28;20048;-62
2022/08/02 09:32:48;;;;;;;2.15;1.52;;;;;;;21.37;56.30;101634.88;5091540;28;20052;-63
2022/08/02 09:38:14;;;;;;;2.80;1.83;;;;;;;21.40;55.88;101626.13;5169648;27;20131;-63
2022/08/02 09:40:43;;;;;;;3.72;1.90;;;;;;;21.46;55.96;101635.16;5161264;27;20300;-64
2022/08/02 09:43:11;;;;;;;3.90;1.77;;;;;;;21.50;56.23;101636.25;5162548;27;20495;-64
2022/08/02 09:45:38;;;;;;;3.67;1.90;;;;;;;21.53;56.20;101639.25;5163609;27;20047;-64
2022/08/02 09:48:08;;;;;;;3.35;1.88;;;;;;;21.54;56.10;101626.38;5156191;27;20067;-64
2022/08/02 09:50:36;;;;;;;2.72;1.65;;;;;;;21.61;56.23;101635.13;5160254;27;20047;-64
2022/08/02 09:53:04;;;;;;;2.63;1.60;;;;;;;21.64;56.16;101629.09;5160851;27;20047;-64
2022/08/02 09:55:33;;;;;;;6.55;1.73;;;;;;;21.69;56.16;101646.31;5155057;27;20096;-63
2022/08/02 09:58:17;;;;;;;5.57;1.95;;;;;;;21.73;56.04;101639.22;5156025;27;20047;-63
2022/08/02 10:00:55;;;;;;;3.20;1.80;;;;;;;21.77;55.96;101642.22;5155118;27;20099;-63
2022/08/02 10:03:23;;;;;;;2.55;1.90;;;;;;;21.83;55.83;101638.34;5155753;27;20179;-64
2022/08/02 10:06:03;;;;;;;3.42;2.00;;;;;;;21.88;55.97;101641.09;5153336;27;20050;-64
2022/08/02 10:08:32;;;;;;;2.95;1.55;;;;;;;21.92;55.88;101633.97;5160491;27;20050;-64
2022/08/02 10:11:02;;;;;;;3.80;1.70;;;;;;;21.97;55.65;101635.84;5154010;27;20058;-63
2022/08/02 10:13:31;;;;;;;3.88;1.48;;;;;;;22.02;55.65;101638.59;5159755;27;20062;-63
2022/08/02 10:16:01;;;;;;;2.25;1.50;;;;;;;22.05;55.61;101627.91;5150933;27;20082;-63
2022/08/02 10:18:29;;;;;;;2.97;1.77;;;;;;;22.09;55.52;101630.91;5162035;27;20055;-63
2022/08/02 10:21:11;;;;;;;5.30;1.70;;;;;;;22.12;55.20;101629.53;5161623;27;20046;-63
2022/08/02 10:23:42;;;;;;;7.55;2.10;;;;;;;22.09;55.21;101622.72;5156988;27;20068;-63
2022/08/02 10:26:14;;;;;;;2.33;1.67;;;;;;;22.16;54.95;101630.63;5161575;27;20095;-63
2022/08/02 10:28:45;;;;;;;2.50;1.70;;;;;;;22.21;54.99;101622.38;5159490;27;20043;-64
2022/08/02 10:31:17;;;;;;;2.92;1.70;;;;;;;22.26;54.93;101625.91;5158926;27;20046;-63
2022/08/02 10:33:46;;;;;;;5.32;1.80;;;;;;;22.26;54.83;101611.41;5151260;27;20134;-63
2022/08/02 10:36:19;;;;;;;2.55;1.58;;;;;;;22.38;54.59;101612.72;5149963;27;20039;-63
2022/08/02 10:38:47;;;;;;;5.50;2.40;;;;;;;22.43;54.56;101613.78;5161927;27;20046;-63
2022/08/02 10:41:46;;;;;;;2.70;1.60;;;;;;;22.48;54.52;101613.75;5157448;27;20104;-64
2022/08/02 10:44:28;;;;;;;2.58;1.50;;;;;;;22.50;54.06;101612.38;5153387;27;20090;-64
2022/08/02 10:47:22;;;;;;;5.20;2.10;;;;;;;22.53;53.86;101619.19;5149892;27;20078;-63
2022/08/02 10:49:52;;;;;;;4.55;1.77;;;;;;;22.55;53.76;101616.97;5146674;27;20039;-62
2022/08/02 10:52:20;;;;;;;3.35;1.58;;;;;;;22.59;53.91;101613.38;5139737;27;20043;-63
2022/08/02 10:54:53;;;;;;;4.57;1.80;;;;;;;22.63;53.75;101619.94;5132984;27;20043;-63
2022/08/02 10:57:26;;;;;;;2.42;1.50;;;;;;;22.65;53.60;101619.66;5147584;27;20047;-62
2022/08/02 10:59:56;;;;;;;2.28;1.50;;;;;;;22.72;53.60;101620.16;5143944;27;20143;-62
2022/08/02 11:02:36;;;;;;;2.15;1.67;;;;;;;22.77;53.11;101622.03;5135454;27;20056;-62
2022/08/02 11:05:15;;;;;;;2.28;1.40;;;;;;;22.81;52.75;101610.25;5143816;27;20047;-62
2022/08/02 11:07:45;;;;;;;1.88;1.48;;;;;;;22.86;53.07;101617.63;5144964;27;20073;-62
2022/08/02 11:10:37;;;;;;;4.03;1.55;;;;;;;22.88;52.47;101613.47;5146974;27;20055;-64
2022/08/02 11:13:09;;;;;;;2.55;1.70;;;;;;;22.90;52.54;101614.00;5138235;27;20070;-63
2022/08/02 11:15:55;;;;;;;2.80;1.50;;;;;;;22.99;52.84;101614.22;5143104;27;20085;-63
2022/08/02 11:19:03;;;;;;;3.40;1.30;;;;;;;23.03;53.00;101610.63;5143655;27;20047;-63
2022/08/02 11:21:34;;;;;;;2.20;1.40;;;;;;;23.10;52.46;101615.78;5139214;27;20062;-63
2022/08/02 11:24:24;;;;;;;2.60;1.33;;;;;;;23.12;51.80;101615.50;5141179;27;20050;-63
2022/08/02 11:26:52;;;;;;;2.13;1.38;;;;;;;23.13;51.37;101617.94;5121281;27;20051;-63
2022/08/02 11:29:22;;;;;;;4.05;1.48;;;;;;;23.15;51.37;101610.25;5135135;27;20062;-63
2022/08/02 11:31:49;;;;;;;1.80;1.30;;;;;;;23.17;51.76;101602.56;5138046;27;20070;-63
2022/08/02 11:34:17;;;;;;;4.60;1.38;;;;;;;23.16;50.96;101600.91;5137663;27;20047;-63
2022/08/02 11:37:04;;;;;;;;;;;;;;;23.24;51.50;101604.97;5136873;27;20089;-63
2022/08/02 11:39:32;;;;;;;2.90;1.38;;;;;;;23.31;51.77;101602.69;5142710;27;19924;-63
2022/08/02 11:42:01;;;;;;;2.95;1.70;;;;;;;23.36;51.36;101605.41;5139336;27;20058;-63
2022/08/02 11:44:39;;;;;;;2.35;1.40;;;;;;;23.39;50.42;101607.56;5143413;27;20047;-63
2022/08/02 11:47:07;;;;;;;3.65;1.50;;;;;;;23.41;50.82;101585.31;5145237;27;20061;-61